createdAt,value
2022-11-13T00:02:35.634Z,5.28
2022-11-13T00:05:20.972Z,4.47
2022-11-13T00:08:06.414Z,3.67
2022-11-13T00:10:51.789Z,3.97
2022-11-13T00:13:37.439Z,3.40
2022-11-13T00:16:22.682Z,5.18
2022-11-13T00:19:08.193Z,3.67
2022-11-13T00:21:54.788Z,4.30
2022-11-13T00:24:40.122Z,3.42
2022-11-13T00:27:25.625Z,5.30
2022-11-13T00:30:16.351Z,3.33
2022-11-13T00:33:04.516Z,3.50
2022-11-13T00:35:49.788Z,5.13
2022-11-13T00:38:35.579Z,3.72
2022-11-13T00:41:21.260Z,4.53
2022-11-13T00:44:06.576Z,3.38
2022-11-13T00:46:51.967Z,4.47
2022-11-13T00:49:37.330Z,2.70
2022-11-13T00:52:22.835Z,4.22
2022-11-13T00:55:08.438Z,2.70
2022-11-13T00:58:19.007Z,3.30
2022-11-13T01:01:06.850Z,3.63
2022-11-13T01:03:51.995Z,3.55
2022-11-13T01:06:37.365Z,3.03
2022-11-13T01:09:22.753Z,3.30
2022-11-13T01:12:08.174Z,2.30
2022-11-13T01:14:53.503Z,3.63
2022-11-13T01:17:39.020Z,3.33
2022-11-13T01:20:25.480Z,3.97
2022-11-13T01:23:11.755Z,3.08
2022-11-13T01:26:10.193Z,2.70
2022-11-13T01:28:57.367Z,4.00
2022-11-13T01:31:42.680Z,4.47
2022-11-13T01:34:27.957Z,2.33
2022-11-13T01:37:13.534Z,3.50
2022-11-13T01:39:58.918Z,2.30
2022-11-13T01:42:44.413Z,5.68
2022-11-13T01:46:01.803Z,3.47
2022-11-13T01:49:09.826Z,2.70
2022-11-13T01:52:04.484Z,2.28
2022-11-13T01:55:25.636Z,3.45
2022-11-13T01:58:13.030Z,3.38
2022-11-13T02:00:58.276Z,2.85
2022-11-13T02:03:43.467Z,3.05
2022-11-13T02:06:33.451Z,2.65
2022-11-13T02:09:22.120Z,3.17
2022-11-13T02:12:10.530Z,1.95
2022-11-13T02:14:58.006Z,3.55
2022-11-13T02:17:51.359Z,3.88
2022-11-13T02:20:58.230Z,3.03
2022-11-13T02:23:50.778Z,2.92
2022-11-13T02:26:37.449Z,2.50
2022-11-13T02:29:22.855Z,4.30
2022-11-13T02:32:08.247Z,10.82
2022-11-13T02:34:53.581Z,3.63
2022-11-13T02:37:39.215Z,4.40
2022-11-13T02:40:24.878Z,4.50
2022-11-13T02:43:10.352Z,5.70
2022-11-13T02:45:55.874Z,4.43
2022-11-13T02:48:41.352Z,4.88
2022-11-13T02:51:26.859Z,2.67
2022-11-13T02:54:16.682Z,4.43
2022-11-13T02:57:02.157Z,5.10
2022-11-13T02:59:47.449Z,4.30
2022-11-13T03:02:32.947Z,6.93
2022-11-13T03:05:18.401Z,4.18
2022-11-13T03:08:04.150Z,5.13
2022-11-13T03:10:49.489Z,5.07
2022-11-13T03:13:34.982Z,5.32
2022-11-13T03:16:20.159Z,5.03
2022-11-13T03:19:05.774Z,6.20
2022-11-13T03:21:51.190Z,5.30
2022-11-13T03:24:36.290Z,6.63
2022-11-13T03:27:21.731Z,6.53
2022-11-13T03:30:07.850Z,3.97
2022-11-13T03:32:55.213Z,6.47
2022-11-13T03:35:46.671Z,6.60
2022-11-13T03:38:32.893Z,7.63
2022-11-13T03:41:18.499Z,6.57
2022-11-13T03:44:03.621Z,8.50
2022-11-13T03:46:49.028Z,5.72
2022-11-13T03:49:34.383Z,5.72
2022-11-13T03:52:19.920Z,7.00
2022-11-13T03:55:05.569Z,7.50
2022-11-13T03:57:50.965Z,7.18
2022-11-13T04:00:37.846Z,7.57
2022-11-13T04:03:23.917Z,7.40
2022-11-13T04:06:09.562Z,7.47
2022-11-13T04:08:54.927Z,6.93
2022-11-13T04:11:40.366Z,6.70
2022-11-13T04:14:26.035Z,8.13
2022-11-13T04:17:11.411Z,7.30
2022-11-13T04:19:56.942Z,7.13
2022-11-13T04:22:42.392Z,7.72
2022-11-13T04:25:27.851Z,7.53
2022-11-13T04:28:13.803Z,7.32
2022-11-13T04:30:59.184Z,11.02
2022-11-13T04:33:44.676Z,8.23
2022-11-13T04:36:30.123Z,6.50
2022-11-13T04:39:15.453Z,8.20
2022-11-13T04:42:19.663Z,7.15
2022-11-13T04:45:05.559Z,6.20
2022-11-13T04:47:51.614Z,7.45
2022-11-13T04:50:36.841Z,6.68
2022-11-13T04:53:22.177Z,6.13
2022-11-13T04:56:07.552Z,7.78
2022-11-13T04:58:53.159Z,9.18
2022-11-13T05:01:38.762Z,7.82
2022-11-13T05:04:24.091Z,7.68
2022-11-13T05:07:09.429Z,6.43
2022-11-13T05:09:54.789Z,7.75
2022-11-13T05:12:39.918Z,7.40
2022-11-13T05:15:25.453Z,8.20
2022-11-13T05:18:10.898Z,7.53
2022-11-13T05:20:56.433Z,7.93
2022-11-13T05:23:41.964Z,7.22
2022-11-13T05:26:27.560Z,7.50
2022-11-13T05:29:12.723Z,6.20
2022-11-13T05:31:58.042Z,8.13
2022-11-13T05:34:43.593Z,8.30
2022-11-13T05:37:29.621Z,7.43
2022-11-13T05:40:15.122Z,7.38
2022-11-13T05:43:00.652Z,8.48
2022-11-13T05:45:46.039Z,6.78
2022-11-13T05:48:32.171Z,10.43
2022-11-13T05:51:23.708Z,6.18
2022-11-13T05:54:09.060Z,6.57
2022-11-13T05:56:54.423Z,5.75
2022-11-13T05:59:39.971Z,6.75
2022-11-13T06:02:25.493Z,6.28
2022-11-13T06:05:10.957Z,6.90
2022-11-13T06:07:56.189Z,6.25
2022-11-13T06:10:41.697Z,5.25
2022-11-13T06:13:27.514Z,5.65
2022-11-13T06:16:15.513Z,5.63
2022-11-13T06:19:03.323Z,6.32
2022-11-13T06:21:48.861Z,5.32
2022-11-13T06:24:34.175Z,6.05
2022-11-13T06:27:19.596Z,4.05
2022-11-13T06:30:05.852Z,6.65
2022-11-13T06:32:54.706Z,5.43
2022-11-13T06:35:40.323Z,7.35
2022-11-13T06:38:26.268Z,6.82
2022-11-13T06:41:13.555Z,6.38
2022-11-13T06:44:03.002Z,6.30
2022-11-13T06:46:48.791Z,8.18
2022-11-13T06:49:34.311Z,4.63
2022-11-13T06:52:19.911Z,4.63
2022-11-13T06:55:05.605Z,5.07
2022-11-13T06:57:51.024Z,5.38
2022-11-13T07:00:38.186Z,6.25
2022-11-13T07:03:27.161Z,4.28
2022-11-13T07:06:15.326Z,4.28
2022-11-13T07:09:00.762Z,6.60
2022-11-13T07:11:46.218Z,5.20
2022-11-13T07:14:31.550Z,4.50
2022-11-13T07:17:16.858Z,3.88
2022-11-13T07:20:02.333Z,4.85
2022-11-13T07:22:47.776Z,4.85
2022-11-13T07:25:33.845Z,5.30
2022-11-13T07:28:19.188Z,4.22
2022-11-13T07:31:05.476Z,5.78
2022-11-13T07:33:51.977Z,5.60
2022-11-13T07:36:37.179Z,5.05
2022-11-13T07:39:22.627Z,5.45
2022-11-13T07:42:08.228Z,6.55
2022-11-13T07:44:54.882Z,6.30
2022-11-13T07:47:40.747Z,8.57
2022-11-13T07:50:31.709Z,9.68
2022-11-13T07:53:18.357Z,7.30
2022-11-13T07:56:04.563Z,9.90
2022-11-13T07:58:49.886Z,11.32
2022-11-13T08:01:35.411Z,8.43
2022-11-13T08:04:21.393Z,8.75
2022-11-13T08:07:07.218Z,7.50
2022-11-13T08:09:52.498Z,7.22
2022-11-13T08:12:37.887Z,9.93
2022-11-13T08:15:23.544Z,12.80
2022-11-13T08:18:08.694Z,10.40
2022-11-13T08:20:54.676Z,9.20
2022-11-13T08:23:41.805Z,9.23
2022-11-13T08:26:27.195Z,12.15
2022-11-13T08:29:12.576Z,11.93
2022-11-13T08:31:58.007Z,13.00
2022-11-13T08:34:43.540Z,14.30
2022-11-13T08:37:29.131Z,13.40
2022-11-13T08:40:14.948Z,11.35
2022-11-13T08:43:01.506Z,12.43
2022-11-13T08:45:47.404Z,13.20
2022-11-13T08:48:32.919Z,9.95
2022-11-13T08:51:18.401Z,15.55
2022-11-13T08:54:03.686Z,14.82
2022-11-13T08:56:55.631Z,14.32
2022-11-13T08:59:42.134Z,10.68
2022-11-13T09:02:27.686Z,12.02
2022-11-13T09:05:13.032Z,10.77
2022-11-13T09:08:00.703Z,9.23
2022-11-13T09:10:46.231Z,8.48
2022-11-13T09:13:32.973Z,7.20
2022-11-13T09:16:18.104Z,6.32
2022-11-13T09:19:04.383Z,8.52
2022-11-13T09:21:51.511Z,6.43
2022-11-13T09:24:37.250Z,5.82
2022-11-13T09:27:22.638Z,7.40
2022-11-13T09:30:08.344Z,6.30
2022-11-13T09:32:55.704Z,6.25
2022-11-13T09:35:42.557Z,5.20
2022-11-13T09:38:31.718Z,6.53
2022-11-13T09:41:21.318Z,4.82
2022-11-13T09:44:18.408Z,6.13
2022-11-13T09:47:15.277Z,6.95
2022-11-13T09:50:12.492Z,6.38
2022-11-13T09:52:57.779Z,6.65
2022-11-13T09:55:55.652Z,6.75
2022-11-13T09:58:54.010Z,6.03
2022-11-13T10:01:58.036Z,5.35
2022-11-13T10:05:22.056Z,5.47
2022-11-13T10:08:11.907Z,5.43
2022-11-13T10:11:19.697Z,5.53
2022-11-13T10:14:29.209Z,5.78
2022-11-13T10:17:34.131Z,5.10
2022-11-13T10:20:33.006Z,6.50
2022-11-13T10:23:26.523Z,4.93
2022-11-13T10:26:18.021Z,7.53
2022-11-13T10:29:21.745Z,5.75
2022-11-13T10:32:23.086Z,6.13
2022-11-13T10:35:23.156Z,3.97
2022-11-13T10:38:44.378Z,5.28
2022-11-13T10:41:29.927Z,4.55
2022-11-13T10:44:25.155Z,4.25
2022-11-13T10:47:30.970Z,5.43
2022-11-13T10:50:25.500Z,4.82
2022-11-13T10:53:19.439Z,4.40
2022-11-13T10:56:27.256Z,4.95
2022-11-13T10:59:18.514Z,3.90
2022-11-13T11:02:19.780Z,3.33
2022-11-13T11:05:16.301Z,4.32
2022-11-13T11:08:06.487Z,5.32
2022-11-13T11:11:37.428Z,5.03
2022-11-13T11:14:28.348Z,5.10
2022-11-13T11:17:16.873Z,3.50
2022-11-13T11:20:20.239Z,6.88
2022-11-13T11:23:43.135Z,3.95
2022-11-13T11:26:41.220Z,3.88
2022-11-13T11:29:44.914Z,3.42
2022-11-13T11:32:50.064Z,3.58
2022-11-13T11:35:48.326Z,3.72
2022-11-13T11:38:40.543Z,4.50
2022-11-13T11:41:40.507Z,4.40
2022-11-13T11:44:52.073Z,4.90
2022-11-13T11:47:38.516Z,4.30
2022-11-13T11:50:50.910Z,4.18
2022-11-13T11:53:47.305Z,3.67
2022-11-13T11:56:57.904Z,4.53
2022-11-13T12:00:14.808Z,3.83
2022-11-13T12:03:23.480Z,4.07
2022-11-13T12:06:22.542Z,3.95
2022-11-13T12:09:28.459Z,5.13
2022-11-13T12:12:48.836Z,4.22
2022-11-13T12:15:46.218Z,4.43
2022-11-13T12:18:46.090Z,3.70
2022-11-13T12:21:43.314Z,3.75
2022-11-13T12:25:05.680Z,4.65
2022-11-13T12:28:14.460Z,5.60
2022-11-13T12:31:08.225Z,4.88
2022-11-13T12:34:15.603Z,5.05
2022-11-13T12:37:04.645Z,3.55
2022-11-13T12:40:06.540Z,3.95
2022-11-13T12:45:51.999Z,3.88
2022-11-13T12:48:42.937Z,4.13
2022-11-13T12:51:40.082Z,4.90
2022-11-13T12:54:36.096Z,3.70
2022-11-13T12:57:30.082Z,4.40
2022-11-13T13:00:30.832Z,4.82
2022-11-13T13:03:40.631Z,4.13
2022-11-13T13:07:05.561Z,4.13
2022-11-13T13:10:09.875Z,5.78
2022-11-13T13:13:12.372Z,4.35
2022-11-13T13:16:00.455Z,3.95
2022-11-13T13:18:45.661Z,4.45
2022-11-13T13:21:41.528Z,4.93
2022-11-13T13:24:37.027Z,4.50
2022-11-13T13:27:25.658Z,4.50
2022-11-13T13:30:55.902Z,4.18
2022-11-13T13:34:33.680Z,4.93
2022-11-13T13:37:52.678Z,4.65
2022-11-13T13:41:17.033Z,4.32
2022-11-13T13:44:41.108Z,4.68
2022-11-13T13:47:31.705Z,5.72
2022-11-13T13:50:21.509Z,4.50
2022-11-13T13:53:09.020Z,6.50
2022-11-13T13:55:56.676Z,5.00
2022-11-13T13:58:42.620Z,5.43
2022-11-13T14:01:33.962Z,4.10
2022-11-13T14:04:22.171Z,4.80
2022-11-13T14:07:23.999Z,5.15
2022-11-13T14:10:12.966Z,5.80
2022-11-13T14:12:58.522Z,6.03
2022-11-13T14:15:43.823Z,4.70
2022-11-13T14:18:29.543Z,4.97
2022-11-13T14:21:22.050Z,4.95
2022-11-13T14:24:21.767Z,5.47
2022-11-13T14:27:09.519Z,5.05
2022-11-13T14:30:02.531Z,9.45
2022-11-13T14:32:47.997Z,6.72
2022-11-13T14:35:33.647Z,5.25
2022-11-13T14:38:25.367Z,5.75
2022-11-13T14:41:36.203Z,4.57
2022-11-13T14:44:32.088Z,5.20
2022-11-13T14:47:22.420Z,5.22
2022-11-13T14:50:29.704Z,5.97
2022-11-13T14:53:27.848Z,6.18
2022-11-13T14:56:13.371Z,5.57
2022-11-13T14:59:19.552Z,6.57
2022-11-13T15:02:05.695Z,5.35
2022-11-13T15:04:51.052Z,6.57
2022-11-13T15:07:41.691Z,7.15
2022-11-13T15:10:29.133Z,6.25
2022-11-13T15:13:17.131Z,5.30
2022-11-13T15:16:02.874Z,5.93
2022-11-13T15:19:19.374Z,8.23
2022-11-13T15:25:19.462Z,5.45
2022-11-13T15:28:05.109Z,5.07
2022-11-13T15:30:50.453Z,6.80
2022-11-13T15:33:36.172Z,6.78
2022-11-13T15:36:21.886Z,6.60
2022-11-13T15:39:12.679Z,6.07
2022-11-13T15:42:06.955Z,6.03
2022-11-13T15:44:52.115Z,5.82
2022-11-13T15:47:37.535Z,6.63
2022-11-13T15:50:22.810Z,6.20
2022-11-13T15:53:12.005Z,10.60
2022-11-13T15:56:02.809Z,12.82
2022-11-13T15:58:48.049Z,12.20
2022-11-13T16:01:33.521Z,15.02
2022-11-13T16:04:19.169Z,12.98
2022-11-13T16:07:13.782Z,11.13
2022-11-13T16:09:59.362Z,6.95
2022-11-13T16:12:45.819Z,8.75
2022-11-13T16:15:31.232Z,9.15
2022-11-13T16:18:24.076Z,9.60
2022-11-13T16:21:13.306Z,7.05
2022-11-13T16:23:58.748Z,7.47
2022-11-13T16:26:49.880Z,6.72
2022-11-13T16:29:35.087Z,9.63
2022-11-13T16:32:21.519Z,6.95
2022-11-13T16:35:12.505Z,9.00
2022-11-13T16:37:58.050Z,12.63
2022-11-13T16:40:45.431Z,11.90
2022-11-13T16:43:31.152Z,10.60
2022-11-13T16:46:19.438Z,11.77
2022-11-13T16:49:05.044Z,8.77
2022-11-13T16:51:51.967Z,7.15
2022-11-13T16:54:37.239Z,7.68
2022-11-13T16:57:22.754Z,8.00
2022-11-13T17:00:13.507Z,6.38
2022-11-13T17:02:58.924Z,6.45
2022-11-13T17:05:44.405Z,6.53
2022-11-13T17:08:29.772Z,9.05
2022-11-13T17:11:15.555Z,7.18
2022-11-13T17:14:02.444Z,10.93
2022-11-13T17:16:47.524Z,11.23
2022-11-13T17:19:33.639Z,12.23
2022-11-13T17:22:19.147Z,11.63
2022-11-13T17:25:05.311Z,9.07
2022-11-13T17:27:50.962Z,11.13
2022-11-13T17:30:36.449Z,14.00
2022-11-13T17:33:21.937Z,8.82
2022-11-13T17:36:09.065Z,8.68
2022-11-13T17:38:55.165Z,8.02
2022-11-13T17:41:40.771Z,7.40
2022-11-13T17:44:25.930Z,5.38
2022-11-13T17:47:11.395Z,6.32
2022-11-13T17:50:01.139Z,7.13
2022-11-13T17:52:49.469Z,8.52
2022-11-13T17:55:34.840Z,7.70
2022-11-13T17:58:24.340Z,6.97
2022-11-13T18:01:21.301Z,6.82
2022-11-13T18:04:06.622Z,6.22
2022-11-13T18:06:52.167Z,7.65
2022-11-13T18:09:37.625Z,8.02
2022-11-13T18:12:23.372Z,7.07
2022-11-13T18:15:08.891Z,7.85
2022-11-13T18:17:54.697Z,6.75
2022-11-13T18:20:41.200Z,6.22
2022-11-13T18:23:26.879Z,5.93
2022-11-13T18:26:18.730Z,5.85
2022-11-13T18:29:07.720Z,5.88
2022-11-13T18:31:53.146Z,4.05
2022-11-13T18:34:38.722Z,5.30
2022-11-13T18:37:24.156Z,4.57
2022-11-13T18:40:10.332Z,3.45
2022-11-13T18:42:55.434Z,4.95
2022-11-13T18:45:40.857Z,4.82
2022-11-13T18:48:30.773Z,4.38
2022-11-13T18:51:22.109Z,4.20
2022-11-13T18:54:11.574Z,4.05
2022-11-13T18:56:56.787Z,5.38
2022-11-13T18:59:42.184Z,6.07
2022-11-13T19:02:28.484Z,5.38
2022-11-13T19:05:13.824Z,5.78
2022-11-13T19:07:58.895Z,5.53
2022-11-13T19:10:44.523Z,4.75
2022-11-13T19:13:30.127Z,4.03
2022-11-13T19:16:20.935Z,4.53
2022-11-13T19:19:10.963Z,4.18
2022-11-13T19:21:56.358Z,3.28
2022-11-13T19:24:41.689Z,4.13
2022-11-13T19:27:27.284Z,4.32
2022-11-13T19:30:12.960Z,3.88
2022-11-13T19:32:58.401Z,3.05
2022-11-13T19:35:43.957Z,3.90
2022-11-13T19:38:29.747Z,3.08
2022-11-13T19:41:15.367Z,2.67
2022-11-13T19:44:00.806Z,3.25
2022-11-13T19:46:46.375Z,3.30
2022-11-13T19:49:31.744Z,3.40
2022-11-13T19:52:17.085Z,3.85
2022-11-13T19:55:03.027Z,3.15
2022-11-13T19:57:48.603Z,3.33
2022-11-13T20:00:34.192Z,3.65
2022-11-13T20:03:19.457Z,2.38
2022-11-13T20:06:05.855Z,4.20
2022-11-13T20:08:51.097Z,3.83
2022-11-13T20:11:36.620Z,3.08
2022-11-13T20:14:21.908Z,2.83
2022-11-13T20:17:07.378Z,3.92
2022-11-13T20:19:52.683Z,2.78
2022-11-13T20:22:38.230Z,4.65
2022-11-13T20:25:23.557Z,4.43
2022-11-13T20:28:08.983Z,2.92
2022-11-13T20:31:03.687Z,2.45
2022-11-13T20:33:50.918Z,2.97
2022-11-13T20:36:36.025Z,3.67
2022-11-13T20:39:21.472Z,3.75
2022-11-13T20:42:06.832Z,6.18
2022-11-13T20:44:53.094Z,3.97
2022-11-13T20:47:40.780Z,5.45
2022-11-13T20:50:26.718Z,7.22
2022-11-13T20:53:12.290Z,4.60
2022-11-13T20:55:57.603Z,4.70
2022-11-13T20:58:43.116Z,6.63
2022-11-13T21:01:28.639Z,7.82
2022-11-13T21:04:14.079Z,6.65
2022-11-13T21:06:59.394Z,7.32
2022-11-13T21:09:48.814Z,7.82
2022-11-13T21:12:35.488Z,6.93
2022-11-13T21:15:21.006Z,9.02
2022-11-13T21:18:06.616Z,6.78
2022-11-13T21:20:52.088Z,6.28
2022-11-13T21:23:37.779Z,6.10
2022-11-13T21:26:24.187Z,6.65
2022-11-13T21:29:09.486Z,6.60
2022-11-13T21:31:55.108Z,3.90
2022-11-13T21:34:40.537Z,7.47
2022-11-13T21:37:26.818Z,6.75
2022-11-13T21:40:13.162Z,5.25
2022-11-13T21:42:58.260Z,5.25
2022-11-13T21:45:43.681Z,2.92
2022-11-13T21:48:32.969Z,2.45
2022-11-13T21:51:18.539Z,2.05
2022-11-13T21:54:04.606Z,5.28
2022-11-13T21:56:49.934Z,5.90
2022-11-13T21:59:35.319Z,5.25
2022-11-13T22:02:21.601Z,6.25
2022-11-13T22:05:07.555Z,6.85
2022-11-13T22:07:53.344Z,6.50
2022-11-13T22:10:38.735Z,6.57
2022-11-13T22:13:24.149Z,6.88
2022-11-13T22:16:12.017Z,7.43
2022-11-13T22:18:59.206Z,6.72
2022-11-13T22:21:45.685Z,6.22
2022-11-13T22:24:31.211Z,6.32
2022-11-13T22:27:18.408Z,5.88
2022-11-13T22:30:04.261Z,6.60
2022-11-13T22:32:49.343Z,6.10
2022-11-13T22:35:34.639Z,5.93
2022-11-13T22:38:19.934Z,6.32
2022-11-13T22:41:07.733Z,7.25
2022-11-13T22:43:59.662Z,4.70
2022-11-13T22:46:45.006Z,6.35
2022-11-13T22:49:30.607Z,4.82
2022-11-13T22:52:15.938Z,4.10
2022-11-13T22:55:04.179Z,4.80
2022-11-13T22:57:49.835Z,5.93
2022-11-13T23:00:38.512Z,5.00
2022-11-13T23:03:23.569Z,3.53
2022-11-13T23:06:10.329Z,5.72
2022-11-13T23:08:56.080Z,3.28
2022-11-13T23:11:42.252Z,2.83
2022-11-13T23:14:27.727Z,3.85
2022-11-13T23:17:13.000Z,3.72
2022-11-13T23:19:58.366Z,4.50
2022-11-13T23:22:43.909Z,5.30
2022-11-13T23:25:29.634Z,3.97
2022-11-13T23:28:14.797Z,4.03
2022-11-13T23:31:00.121Z,4.20
2022-11-13T23:33:47.863Z,3.88
2022-11-13T23:36:33.028Z,4.03
2022-11-13T23:39:18.476Z,3.17
2022-11-13T23:42:04.018Z,4.10
2022-11-13T23:44:49.348Z,2.30
2022-11-13T23:47:34.886Z,2.97
2022-11-13T23:50:20.245Z,2.55
2022-11-13T23:53:05.773Z,2.28
2022-11-13T23:55:51.227Z,3.13
2022-11-13T23:58:36.681Z,2.25
